Time;durP1;ratioP1;P1;durP2;ratioP2;P2;SDS_P1;SDS_P2;PMS_P1;PMS_P2;Temp;Humidity;BMP_temperature;BMP_pressure;BME280_temperature;BME280_humidity;BME280_pressure;Samples;Min_cycle;Max_cycle;Signal;HPM_P1;HPM_P2
2023/12/05 00:02:38;;;;;;;3.03;1.23;;;;;;;;;;4978656;28;20232;-63
2023/12/05 00:05:35;;;;;;;0.83;0.80;;;;;;;;;;4963456;28;20239;-63
2023/12/05 00:08:04;;;;;;;1.80;0.97;;;;;;;;;;4978336;28;20261;-64
2023/12/05 00:10:35;;;;;;;1.53;1.10;;;;;;;;;;4977913;28;20234;-63
2023/12/05 00:13:07;;;;;;;1.43;1.33;;;;;;;;;;4973466;28;20206;-62
2023/12/05 00:15:56;;;;;;;1.47;1.07;;;;;;;;;;4978170;28;20538;-63
2023/12/05 00:21:29;;;;;;;1.10;1.00;;;;;;;;;;4960570;28;20225;-64
2023/12/05 00:24:07;;;;;;;1.40;0.97;;;;;;;;;;4976383;28;20210;-63
2023/12/05 00:26:44;;;;;;;1.57;0.97;;;;;;;;;;4976297;28;20228;-64
2023/12/05 00:29:12;;;;;;;1.13;0.80;;;;;;;;;;4978084;28;20285;-64
2023/12/05 00:31:41;;;;;;;0.80;0.80;;;;;;;;;;4978008;28;20256;-63
2023/12/05 00:34:10;;;;;;;1.20;1.10;;;;;;;;;;4978988;28;20252;-63
2023/12/05 00:36:38;;;;;;;1.53;0.97;;;;;;;;;;4978774;28;20349;-64
2023/12/05 00:39:07;;;;;;;1.30;1.10;;;;;;;;;;4978103;28;20206;-63
2023/12/05 00:41:36;;;;;;;1.10;1.10;;;;;;;;;;4987045;28;20655;-63
2023/12/05 00:44:07;;;;;;;1.10;1.00;;;;;;;;;;4953540;28;20778;-63
2023/12/05 00:46:36;;;;;;;1.23;1.13;;;;;;;;;;4973984;28;20225;-63
2023/12/05 00:49:05;;;;;;;1.10;1.10;;;;;;;;;;4978317;28;20317;-63
2023/12/05 00:51:33;;;;;;;1.03;0.93;;;;;;;;;;4978079;28;20284;-62
2023/12/05 00:54:02;;;;;;;1.27;1.17;;;;;;;;;;4978210;28;20216;-63
2023/12/05 00:56:31;;;;;;;0.80;0.80;;;;;;;;;;4978339;28;20213;-63
2023/12/05 00:58:59;;;;;;;1.50;1.23;;;;;;;;;;4971613;28;20261;-63
2023/12/05 01:01:29;;;;;;;1.73;1.17;;;;;;;;;;4977145;28;20257;-63
2023/12/05 01:03:57;;;;;;;1.80;1.10;;;;;;;;;;4978628;28;20213;-63
2023/12/05 01:06:26;;;;;;;0.90;0.90;;;;;;;;;;4978051;28;20229;-63
2023/12/05 01:08:54;;;;;;;4.33;1.20;;;;;;;;;;4978255;28;20214;-63
2023/12/05 01:11:23;;;;;;;1.87;1.20;;;;;;;;;;4979783;28;20304;-63
2023/12/05 01:13:52;;;;;;;2.03;1.23;;;;;;;;;;4976548;28;20208;-63
2023/12/05 01:16:20;;;;;;;1.50;1.37;;;;;;;;;;4970554;28;20198;-63
2023/12/05 01:18:50;;;;;;;2.87;1.20;;;;;;;;;;4978089;28;20231;-63
2023/12/05 01:21:19;;;;;;;1.57;1.27;;;;;;;;;;4978339;28;20233;-63
2023/12/05 01:23:47;;;;;;;3.40;1.30;;;;;;;;;;4977823;28;20230;-63
2023/12/05 01:26:16;;;;;;;2.00;1.10;;;;;;;;;;4977932;28;20764;-63
2023/12/05 01:28:44;;;;;;;1.40;1.30;;;;;;;;;;4977785;28;20205;-64
2023/12/05 01:31:13;;;;;;;2.17;1.00;;;;;;;;;;4978040;28;20253;-64
2023/12/05 01:33:41;;;;;;;1.37;1.10;;;;;;;;;;4967975;28;20766;-64
2023/12/05 01:36:12;;;;;;;1.17;1.03;;;;;;;;;;4977464;28;20252;-63
2023/12/05 01:38:40;;;;;;;3.40;1.23;;;;;;;;;;4977712;28;20206;-64
2023/12/05 01:41:08;;;;;;;2.63;1.23;;;;;;;;;;4978210;28;20316;-63
2023/12/05 01:43:37;;;;;;;1.70;1.17;;;;;;;;;;4980144;28;20607;-63
2023/12/05 01:46:05;;;;;;;2.33;1.20;;;;;;;;;;4981254;28;20229;-63
2023/12/05 01:48:34;;;;;;;1.83;1.20;;;;;;;;;;4981745;28;20210;-63
2023/12/05 01:51:04;;;;;;;4.57;1.50;;;;;;;;;;4981309;28;20230;-63
2023/12/05 01:53:35;;;;;;;2.53;1.40;;;;;;;;;;4981228;28;20237;-63
2023/12/05 01:56:04;;;;;;;1.67;1.50;;;;;;;;;;4981259;28;20289;-63
2023/12/05 01:58:32;;;;;;;2.20;1.50;;;;;;;;;;4982081;28;20738;-63
2023/12/05 02:01:01;;;;;;;1.87;1.10;;;;;;;;;;4981293;28;20312;-63
2023/12/05 02:03:29;;;;;;;1.37;1.10;;;;;;;;;;4981173;28;20216;-63
2023/12/05 02:05:58;;;;;;;1.00;0.90;;;;;;;;;;4976127;28;20729;-63
2023/12/05 02:08:29;;;;;;;1.30;1.20;;;;;;;;;;4969826;28;20764;-63
2023/12/05 02:11:00;;;;;;;1.30;1.20;;;;;;;;;;4980961;28;20226;-63
2023/12/05 02:13:39;;;;;;;1.20;1.10;;;;;;;;;;4974633;28;20289;-63
2023/12/05 02:16:14;;;;;;;3.97;1.30;;;;;;;;;;4972351;28;20260;-63
2023/12/05 02:18:46;;;;;;;3.07;1.30;;;;;;;;;;4978299;28;20283;-63
2023/12/05 02:21:20;;;;;;;1.40;1.20;;;;;;;;;;4980900;28;20221;-63
2023/12/05 02:23:59;;;;;;;1.53;1.40;;;;;;;;;;4981044;28;20216;-63
2023/12/05 02:26:36;;;;;;;2.40;1.57;;;;;;;;;;4978736;28;20240;-63
2023/12/05 02:29:06;;;;;;;1.70;1.60;;;;;;;;;;4981164;28;20284;-63
2023/12/05 02:31:38;;;;;;;2.37;1.63;;;;;;;;;;4980703;28;20312;-63
2023/12/05 02:34:07;;;;;;;2.73;1.80;;;;;;;;;;4976795;28;20205;-63
2023/12/05 02:36:38;;;;;;;1.43;1.30;;;;;;;;;;4980552;28;20238;-63
2023/12/05 02:39:12;;;;;;;4.93;1.53;;;;;;;;;;4980074;28;20233;-63
2023/12/05 02:41:43;;;;;;;2.53;1.50;;;;;;;;;;4976044;28;20225;-63
2023/12/05 02:44:13;;;;;;;1.40;1.30;;;;;;;;;;4980835;28;20261;-63
2023/12/05 02:46:42;;;;;;;4.20;1.47;;;;;;;;;;4980574;28;20205;-63
2023/12/05 02:49:11;;;;;;;1.70;1.47;;;;;;;;;;4979655;28;20217;-63
2023/12/05 02:51:41;;;;;;;1.20;1.10;;;;;;;;;;4980202;28;20253;-63
2023/12/05 02:54:10;;;;;;;2.23;1.87;;;;;;;;;;4979554;28;20210;-63
2023/12/05 02:56:38;;;;;;;1.93;1.77;;;;;;;;;;4980113;28;20228;-63
2023/12/05 02:59:06;;;;;;;2.07;1.60;;;;;;;;;;4982744;28;20285;-63
2023/12/05 03:01:40;;;;;;;1.70;1.60;;;;;;;;;;4980234;28;20276;-63
2023/12/05 03:04:08;;;;;;;1.47;1.37;;;;;;;;;;4980068;28;20209;-63
2023/12/05 03:06:37;;;;;;;1.50;1.40;;;;;;;;;;4980229;28;20216;-63
2023/12/05 03:09:05;;;;;;;3.07;1.60;;;;;;;;;;4979572;28;20688;-64
2023/12/05 03:11:34;;;;;;;1.53;1.43;;;;;;;;;;4979997;28;20236;-63
2023/12/05 03:14:03;;;;;;;2.33;1.60;;;;;;;;;;4979777;28;20694;-63
2023/12/05 03:16:31;;;;;;;4.03;1.63;;;;;;;;;;4971595;28;20244;-63
2023/12/05 03:19:01;;;;;;;1.30;1.20;;;;;;;;;;4978868;28;20229;-63
2023/12/05 03:21:30;;;;;;;1.93;1.63;;;;;;;;;;4979897;28;20230;-63
2023/12/05 03:23:58;;;;;;;4.03;1.30;;;;;;;;;;4978465;28;20208;-63
2023/12/05 03:26:27;;;;;;;1.80;1.33;;;;;;;;;;4979731;28;20293;-63
2023/12/05 03:28:56;;;;;;;3.00;1.47;;;;;;;;;;4979044;28;20225;-63
2023/12/05 03:31:25;;;;;;;1.60;1.23;;;;;;;;;;4979578;28;20692;-63
2023/12/05 03:33:53;;;;;;;1.97;1.30;;;;;;;;;;4979906;28;20296;-63
2023/12/05 03:36:23;;;;;;;4.77;1.60;;;;;;;;;;4979124;28;20221;-63
2023/12/05 03:38:52;;;;;;;1.50;1.40;;;;;;;;;;4979513;28;20677;-63
2023/12/05 03:41:20;;;;;;;2.67;1.37;;;;;;;;;;4983546;28;20272;-63
2023/12/05 03:43:48;;;;;;;2.67;1.20;;;;;;;;;;4979138;28;20209;-63
2023/12/05 03:46:17;;;;;;;3.27;2.20;;;;;;;;;;4979628;28;20205;-63
2023/12/05 03:48:45;;;;;;;2.53;1.70;;;;;;;;;;4979101;28;20229;-63
2023/12/05 03:51:14;;;;;;;4.53;2.07;;;;;;;;;;4975652;28;20224;-63
2023/12/05 03:53:44;;;;;;;1.20;1.10;;;;;;;;;;4978956;28;20672;-63
2023/12/05 03:56:12;;;;;;;8.13;1.80;;;;;;;;;;4978862;28;20265;-63
2023/12/05 03:58:41;;;;;;;1.57;0.80;;;;;;;;;;4981192;28;20201;-63
2023/12/05 04:01:09;;;;;;;0.87;0.80;;;;;;;;;;4977672;28;20224;-63
2023/12/05 04:03:44;;;;;;;1.67;0.80;;;;;;;;;;4977563;28;20213;-63
2023/12/05 04:06:19;;;;;;;1.13;0.80;;;;;;;;;;4978071;28;20256;-63
2023/12/05 04:08:59;;;;;;;1.43;0.90;;;;;;;;;;4978961;28;20225;-63
2023/12/05 04:11:31;;;;;;;0.80;0.80;;;;;;;;;;4979313;28;20256;-63
2023/12/05 04:14:00;;;;;;;2.13;0.80;;;;;;;;;;4979341;28;20213;-63
2023/12/05 04:16:30;;;;;;;0.87;0.80;;;;;;;;;;4979007;28;20213;-63
2023/12/05 04:18:58;;;;;;;0.70;0.60;;;;;;;;;;4972423;28;20731;-63
2023/12/05 04:21:30;;;;;;;3.40;0.60;;;;;;;;;;4978893;28;20272;-63
2023/12/05 04:24:00;;;;;;;2.43;0.80;;;;;;;;;;4979003;28;20202;-63
2023/12/05 04:26:29;;;;;;;2.40;0.90;;;;;;;;;;4978717;28;20236;-63
2023/12/05 04:28:58;;;;;;;1.80;0.80;;;;;;;;;;4978415;28;20245;-63
2023/12/05 04:31:27;;;;;;;1.13;0.67;;;;;;;;;;4978592;28;20609;-63
2023/12/05 04:33:57;;;;;;;2.33;1.47;;;;;;;;;;4978825;28;20268;-63
2023/12/05 04:36:26;;;;;;;1.23;0.80;;;;;;;;;;4975589;28;20324;-63
2023/12/05 04:38:55;;;;;;;0.80;0.80;;;;;;;;;;4978480;28;20700;-63
2023/12/05 04:41:24;;;;;;;0.60;0.60;;;;;;;;;;4984003;28;20312;-63
2023/12/05 04:43:53;;;;;;;1.33;0.87;;;;;;;;;;4978989;28;20241;-63
2023/12/05 04:46:22;;;;;;;1.77;0.67;;;;;;;;;;4978422;28;20623;-63
2023/12/05 04:48:50;;;;;;;2.17;0.80;;;;;;;;;;4978266;28;20309;-64
2023/12/05 04:51:19;;;;;;;1.03;0.77;;;;;;;;;;4977867;28;20770;-64
2023/12/05 04:53:48;;;;;;;2.00;0.80;;;;;;;;;;4978547;28;20209;-63
2023/12/05 04:56:16;;;;;;;1.50;0.50;;;;;;;;;;4978267;28;20240;-63
2023/12/05 04:58:46;;;;;;;0.73;0.60;;;;;;;;;;4979892;28;20202;-63
2023/12/05 05:01:14;;;;;;;0.70;0.70;;;;;;;;;;4967209;28;20224;-63
2023/12/05 05:03:43;;;;;;;0.57;0.57;;;;;;;;;;4970968;28;20233;-63
2023/12/05 05:06:12;;;;;;;2.50;2.30;;;;;;;;;;4978673;28;20206;-63
2023/12/05 05:08:40;;;;;;;4.00;1.43;;;;;;;;;;4978214;28;20233;-63
2023/12/05 05:11:09;;;;;;;1.20;1.07;;;;;;;;;;4965836;28;20280;-63
2023/12/05 05:13:38;;;;;;;0.90;0.90;;;;;;;;;;4978709;28;20216;-63
2023/12/05 05:16:21;;;;;;;2.03;0.90;;;;;;;;;;4977944;28;20643;-63
2023/12/05 05:18:50;;;;;;;2.27;1.10;;;;;;;;;;4971861;28;20209;-64
2023/12/05 05:21:18;;;;;;;0.93;0.60;;;;;;;;;;4981644;28;20229;-63
2023/12/05 05:23:47;;;;;;;1.97;0.90;;;;;;;;;;4981420;28;20629;-63
2023/12/05 05:26:15;;;;;;;1.57;0.77;;;;;;;;;;4981741;28;20204;-63
2023/12/05 05:28:43;;;;;;;2.90;1.00;;;;;;;;;;4981505;28;20308;-63
2023/12/05 05:31:12;;;;;;;0.80;0.80;;;;;;;;;;4975351;28;20701;-63
2023/12/05 05:33:43;;;;;;;1.53;1.10;;;;;;;;;;4980809;28;20233;-63
2023/12/05 05:36:14;;;;;;;0.80;0.80;;;;;;;;;;4981547;28;20233;-63
2023/12/05 05:38:42;;;;;;;2.63;1.13;;;;;;;;;;4981640;28;20202;-63
2023/12/05 05:41:11;;;;;;;2.93;1.17;;;;;;;;;;4992327;28;20233;-63
2023/12/05 05:43:40;;;;;;;0.90;0.77;;;;;;;;;;4982031;28;20213;-64
2023/12/05 05:46:08;;;;;;;1.43;1.03;;;;;;;;;;4979197;28;20769;-64
2023/12/05 05:48:37;;;;;;;0.80;0.80;;;;;;;;;;4981043;28;20221;-63
2023/12/05 05:51:07;;;;;;;5.17;1.10;;;;;;;;;;4981242;28;20286;-63
2023/12/05 05:53:36;;;;;;;3.40;1.07;;;;;;;;;;4981251;28;20635;-63
2023/12/05 05:56:04;;;;;;;1.00;0.87;;;;;;;;;;4981035;28;20210;-63
2023/12/05 05:58:34;;;;;;;2.73;0.90;;;;;;;;;;4983343;28;20327;-64
2023/12/05 06:01:02;;;;;;;7.37;1.33;;;;;;;;;;4981065;28;20308;-63
2023/12/05 06:03:31;;;;;;;2.07;1.00;;;;;;;;;;4981015;28;20210;-63
2023/12/05 06:06:00;;;;;;;2.73;1.37;;;;;;;;;;4981048;28;20237;-63
2023/12/05 06:08:29;;;;;;;2.97;1.00;;;;;;;;;;4980468;28;20623;-63
2023/12/05 06:10:58;;;;;;;2.53;1.10;;;;;;;;;;4980876;28;20261;-63
2023/12/05 06:13:26;;;;;;;4.87;1.30;;;;;;;;;;4981218;28;20573;-63
2023/12/05 06:15:55;;;;;;;3.30;1.20;;;;;;;;;;4980822;28;20256;-63
2023/12/05 06:18:25;;;;;;;2.20;1.33;;;;;;;;;;4980967;28;20679;-63
2023/12/05 06:20:56;;;;;;;4.30;1.07;;;;;;;;;;4967534;28;20597;-63
2023/12/05 06:23:25;;;;;;;3.50;1.10;;;;;;;;;;4974467;28;20208;-64
2023/12/05 06:25:55;;;;;;;2.93;1.40;;;;;;;;;;4980783;28;20202;-64
2023/12/05 06:28:23;;;;;;;4.33;1.20;;;;;;;;;;4980931;28;20244;-64
2023/12/05 06:30:52;;;;;;;3.00;1.37;;;;;;;;;;4979615;28;20221;-64
2023/12/05 06:33:20;;;;;;;3.47;1.50;;;;;;;;;;4980478;28;20206;-64
2023/12/05 06:35:49;;;;;;;2.80;1.20;;;;;;;;;;4980839;28;20292;-64
2023/12/05 06:38:17;;;;;;;2.03;1.20;;;;;;;;;;4979998;28;20244;-64
2023/12/05 06:40:45;;;;;;;4.13;2.10;;;;;;;;;;4978828;28;20226;-64
2023/12/05 06:43:15;;;;;;;3.17;1.20;;;;;;;;;;4980397;28;20335;-64
2023/12/05 06:45:43;;;;;;;4.27;1.23;;;;;;;;;;4980640;28;20197;-64
2023/12/05 06:48:12;;;;;;;2.63;1.50;;;;;;;;;;4980374;28;20580;-64
2023/12/05 06:50:45;;;;;;;4.90;1.47;;;;;;;;;;4980442;28;20232;-63
2023/12/05 06:53:13;;;;;;;1.23;1.13;;;;;;;;;;4979443;28;20573;-64
2023/12/05 06:55:43;;;;;;;2.60;1.20;;;;;;;;;;4978203;28;20649;-63
2023/12/05 06:58:24;;;;;;;4.10;1.23;;;;;;;;;;4979067;28;20612;-65
2023/12/05 07:01:02;;;;;;;5.10;1.73;;;;;;;;;;4979535;28;20225;-64
2023/12/05 07:03:31;;;;;;;3.33;1.30;;;;;;;;;;4980075;28;20248;-64
2023/12/05 07:06:05;;;;;;;2.27;1.00;;;;;;;;;;4979857;28;20208;-64
2023/12/05 07:08:33;;;;;;;9.37;1.63;;;;;;;;;;4980579;28;20288;-64
2023/12/05 07:11:10;;;;;;;5.33;1.37;;;;;;;;;;4979619;28;20677;-64
2023/12/05 07:13:41;;;;;;;3.10;1.40;;;;;;;;;;4980352;28;20217;-64
2023/12/05 07:16:11;;;;;;;2.17;1.00;;;;;;;;;;4981811;28;20248;-64
2023/12/05 07:18:40;;;;;;;3.40;1.40;;;;;;;;;;4981704;28;20288;-64
2023/12/05 07:21:09;;;;;;;5.60;1.27;;;;;;;;;;4976147;28;20225;-64
2023/12/05 07:23:38;;;;;;;2.80;1.20;;;;;;;;;;4970266;28;20202;-64
2023/12/05 07:26:08;;;;;;;3.17;1.10;;;;;;;;;;4979192;28;20221;-64
2023/12/05 07:28:36;;;;;;;4.27;1.50;;;;;;;;;;4979000;28;20206;-64
2023/12/05 07:31:06;;;;;;;1.70;1.47;;;;;;;;;;4974719;28;20304;-64
2023/12/05 07:33:38;;;;;;;1.60;1.20;;;;;;;;;;4979416;28;20286;-64
2023/12/05 07:36:20;;;;;;;1.93;1.07;;;;;;;;;;4975343;28;20252;-64
2023/12/05 07:39:03;;;;;;;3.60;1.63;;;;;;;;;;4979941;28;20205;-64
2023/12/05 07:41:33;;;;;;;8.87;1.87;;;;;;;;;;4986011;28;20221;-64
2023/12/05 07:44:36;;;;;;;2.80;1.70;;;;;;;;;;4979833;28;20205;-64
2023/12/05 07:47:19;;;;;;;4.47;2.23;;;;;;;;;;4972540;28;20205;-64
2023/12/05 07:49:48;;;;;;;4.13;2.43;;;;;;;;;;4981555;28;20708;-63
2023/12/05 07:52:17;;;;;;;5.37;3.47;;;;;;;;;;4970156;28;20321;-65
2023/12/05 07:54:45;;;;;;;10.00;3.13;;;;;;;;;;4978118;28;20205;-65
2023/12/05 07:57:15;;;;;;;12.17;6.40;;;;;;;;;;4980960;28;20210;-64
2023/12/05 07:59:44;;;;;;;18.83;10.50;;;;;;;;;;4979503;28;20201;-64
2023/12/05 08:02:13;;;;;;;11.03;4.43;;;;;;;;;;4972958;28;20600;-64
2023/12/05 08:04:46;;;;;;;4.83;2.13;;;;;;;;;;4976668;28;20261;-65
2023/12/05 08:07:14;;;;;;;5.67;2.27;;;;;;;;;;4976721;28;20284;-68
2023/12/05 08:09:43;;;;;;;4.00;1.80;;;;;;;;;;4978033;28;20297;-66
2023/12/05 08:12:20;;;;;;;4.03;1.90;;;;;;;;;;4972215;28;20221;-66
2023/12/05 08:15:09;;;;;;;4.13;1.37;;;;;;;;;;4972375;28;20224;-64
2023/12/05 08:18:28;;;;;;;4.10;2.50;;;;;;;;;;4964905;28;20209;-67
2023/12/05 08:24:22;;;;;;;3.33;1.73;;;;;;;;;;4978109;28;20209;-65
2023/12/05 08:26:50;;;;;;;4.57;1.43;;;;;;;;;;4976309;28;20212;-64
2023/12/05 08:29:21;;;;;;;5.23;1.60;;;;;;;;;;4975024;28;20778;-64
2023/12/05 08:32:07;;;;;;;8.23;2.53;;;;;;;;;;4973932;28;20272;-63
2023/12/05 08:37:32;;;;;;;6.03;1.80;;;;;;;;;;4968630;28;20705;-63
2023/12/05 08:40:33;;;;;;;4.23;1.70;;;;;;;;;;4981603;28;20197;-63
2023/12/05 08:43:29;;;;;;;5.87;1.57;;;;;;;;;;4977612;28;20264;-62
2023/12/05 08:46:13;;;;;;;6.57;1.60;;;;;;;;;;4977959;28;20202;-63
2023/12/05 08:48:58;;;;;;;5.40;1.67;;;;;;;;;;4976476;28;20657;-63
2023/12/05 08:51:57;;;;;;;4.53;1.43;;;;;;;;;;4973986;28;20229;-61
2023/12/05 08:55:04;;;;;;;3.77;1.50;;;;;;;;;;4976769;28;20201;-62
2023/12/05 08:58:21;;;;;;;3.87;1.47;;;;;;;;;;4980506;28;20296;-62
2023/12/05 09:06:53;;;;;;;3.83;1.50;;;;;;;;;;4971273;28;20220;-61
2023/12/05 09:13:07;;;;;;;5.70;2.13;;;;;;;;;;4951504;28;20201;-63
2023/12/05 09:15:55;;;;;;;11.50;2.10;;;;;;;;;;4975798;28;20209;-62
2023/12/05 09:18:33;;;;;;;2.13;1.63;;;;;;;;;;4976006;28;20201;-61
2023/12/05 09:21:02;;;;;;;1.80;1.70;;;;;;;;;;4976613;28;20250;-63
2023/12/05 09:23:30;;;;;;;7.77;2.80;;;;;;;;;;4977571;28;20241;-62
2023/12/05 09:26:05;;;;;;;2.73;1.60;;;;;;;;;;4976162;28;20248;-63
2023/12/05 09:28:48;;;;;;;3.73;1.47;;;;;;;;;;4957242;28;20213;-63
2023/12/05 09:31:18;;;;;;;3.37;1.70;;;;;;;;;;4977961;28;20261;-62
2023/12/05 09:36:45;;;;;;;4.53;1.47;;;;;;;;;;4977509;28;20253;-63
2023/12/05 09:39:14;;;;;;;6.40;1.47;;;;;;;;;;4977604;28;20209;-63
2023/12/05 09:41:48;;;;;;;7.00;1.67;;;;;;;;;;4986563;28;20308;-63
2023/12/05 09:44:21;;;;;;;5.97;1.57;;;;;;;;;;4975934;28;20205;-63
2023/12/05 09:46:52;;;;;;;4.47;1.50;;;;;;;;;;4973981;28;20214;-63
2023/12/05 09:49:24;;;;;;;4.33;1.70;;;;;;;;;;4987808;28;20209;-63
2023/12/05 09:51:54;;;;;;;4.03;1.40;;;;;;;;;;4977890;28;20230;-64
2023/12/05 09:54:25;;;;;;;3.30;1.07;;;;;;;;;;4977320;28;20284;-62
2023/12/05 09:56:57;;;;;;;3.47;1.37;;;;;;;;;;4977349;28;20260;-61
2023/12/05 09:59:33;;;;;;;4.07;1.37;;;;;;;;;;4979301;28;20220;-62
2023/12/05 10:02:08;;;;;;;3.93;1.47;;;;;;;;;;4977541;28;20221;-62
2023/12/05 10:04:41;;;;;;;5.67;1.60;;;;;;;;;;4979221;28;20201;-61
2023/12/05 10:07:11;;;;;;;3.07;1.40;;;;;;;;;;4980396;28;20212;-61
2023/12/05 10:09:42;;;;;;;3.67;1.67;;;;;;;;;;4980967;28;20630;-61
2023/12/05 10:12:12;;;;;;;3.40;1.30;;;;;;;;;;4980293;28;20232;-63
2023/12/05 10:14:47;;;;;;;2.77;1.23;;;;;;;;;;4980961;28;20205;-61
2023/12/05 10:17:38;;;;;;;2.53;1.53;;;;;;;;;;4981088;28;20210;-61
2023/12/05 10:26:57;;;;;;;3.97;1.27;;;;;;;;;;4901074;29;20208;-62
2023/12/05 10:29:37;;;;;;;1.80;1.40;;;;;;;;;;4899571;29;20214;-61
2023/12/05 10:32:08;;;;;;;3.47;1.60;;;;;;;;;;4901814;29;20231;-62
2023/12/05 10:34:49;;;;;;;1.77;1.00;;;;;;;;;;4898153;29;20200;-62
2023/12/05 10:37:23;;;;;;;5.47;1.43;;;;;;;;;;4895707;29;20236;-63
2023/12/05 10:40:07;;;;;;;3.40;1.53;;;;;;;;;;4897926;29;20208;-63
2023/12/05 10:42:48;;;;;;;1.80;1.30;;;;;;;;;;4898221;29;20665;-63
2023/12/05 10:45:20;;;;;;;2.80;1.13;;;;;;;;;;4900640;29;20204;-62
2023/12/05 10:51:08;;;;;;;3.53;1.43;;;;;;;;;;4897419;29;20228;-62
2023/12/05 10:57:15;;;;;;;15.27;4.70;;;;;;;;;;4901455;29;20200;-62
2023/12/05 10:59:49;;;;;;;6.47;1.63;;;;;;;;;;4904315;28;20637;-62
2023/12/05 11:02:22;;;;;;;2.43;1.30;;;;;;;;;;4973833;28;20308;-64
2023/12/05 11:04:56;;;;;;;5.13;1.70;;;;;;;;;;4980094;28;20264;-62
2023/12/05 11:07:37;;;;;;;4.10;1.97;;;;;;;;;;4979826;28;20716;-63
2023/12/05 11:10:07;;;;;;;1.80;1.17;;;;;;;;;;4979119;28;20716;-62
2023/12/05 11:12:38;;;;;;;2.90;1.20;;;;;;;;;;4979224;28;20256;-63
2023/12/05 11:15:08;;;;;;;1.67;1.10;;;;;;;;;;4977564;28;20201;-63
2023/12/05 11:17:45;;;;;;;4.57;1.20;;;;;;;;;;4979288;28;20671;-62
2023/12/05 11:20:30;;;;;;;0.93;0.90;;;;;;;;;;4974561;28;20208;-62
2023/12/05 11:23:08;;;;;;;3.37;1.10;;;;;;;;;;4969789;28;20201;-64
2023/12/05 11:26:01;;;;;;;3.10;1.10;;;;;;;;;;4979274;28;20201;-63
2023/12/05 11:28:43;;;;;;;1.73;1.03;;;;;;;;;;4979057;28;20288;-64
2023/12/05 11:31:26;;;;;;;4.10;1.17;;;;;;;;;;4979373;28;20225;-62
2023/12/05 11:34:09;;;;;;;4.13;1.37;;;;;;;;;;4978975;28;20225;-63
2023/12/05 11:36:44;;;;;;;4.47;1.10;;;;;;;;;;4978923;28;20256;-62
2023/12/05 11:39:20;;;;;;;2.17;1.27;;;;;;;;;;4977946;28;20205;-63
2023/12/05 11:42:04;;;;;;;2.10;1.10;;;;;;;;;;4978231;28;20228;-62
2023/12/05 11:44:55;;;;;;;29.07;16.90;;;;;;;;;;4970861;28;20210;-63
2023/12/05 11:47:31;;;;;;;13.20;8.57;;;;;;;;;;4975311;28;20205;-62
2023/12/05 11:50:04;;;;;;;1.83;1.30;;;;;;;;;;4978557;28;20237;-63
2023/12/05 11:52:39;;;;;;;1.07;0.90;;;;;;;;;;4978621;28;20221;-62
2023/12/05 11:55:13;;;;;;;1.40;0.80;;;;;;;;;;4978938;28;20208;-63
2023/12/05 11:57:43;;;;;;;1.33;0.90;;;;;;;;;;4976683;28;20228;-63
2023/12/05 12:00:13;;;;;;;5.20;1.40;;;;;;;;;;4973860;28;20237;-63
2023/12/05 12:02:44;;;;;;;4.30;1.33;;;;;;;;;;4976197;28;20261;-63
2023/12/05 12:05:18;;;;;;;1.20;0.87;;;;;;;;;;4978416;28;20296;-63
2023/12/05 12:07:52;;;;;;;1.80;1.10;;;;;;;;;;4977293;28;20208;-63
2023/12/05 12:10:22;;;;;;;4.63;1.00;;;;;;;;;;4978609;28;20202;-63
2023/12/05 12:12:59;;;;;;;2.97;0.90;;;;;;;;;;4972043;28;20684;-63
2023/12/05 12:15:42;;;;;;;2.83;1.07;;;;;;;;;;4963063;28;20202;-62
2023/12/05 12:18:28;;;;;;;4.60;0.80;;;;;;;;;;4977386;28;20217;-63
2023/12/05 12:21:09;;;;;;;1.90;0.90;;;;;;;;;;4970573;28;20285;-63
2023/12/05 12:23:59;;;;;;;1.63;0.90;;;;;;;;;;4978118;28;20267;-63
2023/12/05 12:30:18;;;;;;;1.07;0.57;;;;;;;;;;4975286;28;20213;-63
2023/12/05 12:39:05;;;;;;;1.30;0.70;;;;;;;;;;4967437;28;20209;-63
2023/12/05 12:41:45;;;;;;;1.93;0.90;;;;;;;;;;4976558;28;20228;-63
2023/12/05 12:47:26;;;;;;;2.93;0.63;;;;;;;;;;4973183;28;20205;-64
2023/12/05 12:50:14;;;;;;;;;;;;;;;;;;;;;
2023/12/05 12:56:24;;;;;;;2.83;0.73;;;;;;;;;;4964479;28;20209;-63
2023/12/05 12:59:06;;;;;;;2.87;0.67;;;;;;;;;;4956805;28;20754;-64
2023/12/05 13:02:06;;;;;;;1.90;1.00;;;;;;;;;;4969315;28;20233;-63
2023/12/05 13:04:45;;;;;;;1.83;0.80;;;;;;;;;;4972284;28;20605;-65
2023/12/05 13:07:19;;;;;;;1.43;0.83;;;;;;;;;;4974188;28;20217;-64
2023/12/05 13:09:48;;;;;;;1.63;0.60;;;;;;;;;;4976428;28;20296;-66
2023/12/05 13:22:00;;;;;;;0.80;0.60;;;;;;;;;;4972338;28;20222;-63
2023/12/05 13:25:03;;;;;;;2.67;0.90;;;;;;;;;;4974082;28;20683;-65
2023/12/05 13:34:53;;;;;;;0.77;0.60;;;;;;;;;;4972817;28;20208;-63
2023/12/05 13:37:54;;;;;;;0.70;0.60;;;;;;;;;;4976786;28;20711;-62
2023/12/05 13:40:46;;;;;;;2.03;0.73;;;;;;;;;;4978932;28;20380;-64
2023/12/05 13:43:33;;;;;;;1.70;0.73;;;;;;;;;;4980411;28;20201;-63
2023/12/05 13:46:39;;;;;;;3.63;0.80;;;;;;;;;;4941572;28;20693;-64
2023/12/05 13:49:58;;;;;;;1.53;0.77;;;;;;;;;;4972730;28;20224;-64
2023/12/05 13:55:54;;;;;;;1.17;0.60;;;;;;;;;;4931973;29;20215;-63
2023/12/05 13:59:04;;;;;;;;;;;;;;;;;;;;;
2023/12/05 14:02:33;;;;;;;0.80;0.70;;;;;;;;;;4947074;28;20221;-63
2023/12/05 14:05:34;;;;;;;0.73;0.67;;;;;;;;;;4964273;28;20284;-63
2023/12/05 14:08:32;;;;;;;0.60;0.60;;;;;;;;;;4978624;28;20656;-64
2023/12/05 14:17:58;;;;;;;0.93;0.60;;;;;;;;;;4937115;29;20207;-63
2023/12/05 14:20:52;;;;;;;2.20;0.77;;;;;;;;;;4979285;28;20260;-63
2023/12/05 14:23:32;;;;;;;2.80;0.60;;;;;;;;;;4981643;28;20233;-63
2023/12/05 14:26:18;;;;;;;0.60;0.60;;;;;;;;;;4981685;28;20205;-63
2023/12/05 14:28:58;;;;;;;0.93;0.93;;;;;;;;;;4980996;28;20284;-63
2023/12/05 14:31:55;;;;;;;2.00;0.90;;;;;;;;;;4981187;28;20692;-62
2023/12/05 14:35:29;;;;;;;1.33;0.60;;;;;;;;;;4975518;28;20751;-62
2023/12/05 14:41:48;;;;;;;0.87;0.70;;;;;;;;;;4976234;28;20205;-62
2023/12/05 14:44:19;;;;;;;1.00;0.70;;;;;;;;;;4977923;28;20197;-62
2023/12/05 14:46:50;;;;;;;0.73;0.60;;;;;;;;;;4978195;28;20569;-63
2023/12/05 14:49:19;;;;;;;2.73;0.70;;;;;;;;;;4979820;28;20245;-61
2023/12/05 14:51:48;;;;;;;4.67;0.80;;;;;;;;;;4979164;28;20580;-62
2023/12/05 14:54:38;;;;;;;1.03;0.90;;;;;;;;;;4979985;28;20228;-61
2023/12/05 15:00:36;;;;;;;1.33;0.70;;;;;;;;;;4974987;28;20216;-61
2023/12/05 15:03:04;;;;;;;5.60;0.93;;;;;;;;;;4968724;28;20198;-61
2023/12/05 15:05:32;;;;;;;1.37;0.80;;;;;;;;;;4979962;28;20244;-62
2023/12/05 15:08:01;;;;;;;2.57;0.90;;;;;;;;;;4979995;28;20213;-61
2023/12/05 15:10:33;;;;;;;1.43;0.70;;;;;;;;;;4979935;28;20225;-60
2023/12/05 15:13:01;;;;;;;1.00;0.90;;;;;;;;;;4980108;28;20211;-60
2023/12/05 15:15:31;;;;;;;1.60;0.90;;;;;;;;;;4979872;28;20304;-60
2023/12/05 15:18:01;;;;;;;2.23;0.90;;;;;;;;;;4979531;28;20288;-60
2023/12/05 15:20:30;;;;;;;1.57;1.00;;;;;;;;;;4979504;28;20747;-61
2023/12/05 15:23:00;;;;;;;2.73;0.90;;;;;;;;;;4979039;28;20202;-61
2023/12/05 15:25:29;;;;;;;1.90;0.87;;;;;;;;;;4972705;28;20297;-60
2023/12/05 15:27:58;;;;;;;1.70;0.63;;;;;;;;;;4979591;28;20212;-60
2023/12/05 15:30:29;;;;;;;1.67;1.00;;;;;;;;;;4979390;28;20217;-63
2023/12/05 15:32:57;;;;;;;0.60;0.60;;;;;;;;;;4979634;28;20202;-61
2023/12/05 15:35:27;;;;;;;3.30;0.70;;;;;;;;;;4978729;28;20689;-62
2023/12/05 15:37:55;;;;;;;2.70;0.70;;;;;;;;;;4979021;28;20296;-60
2023/12/05 15:40:23;;;;;;;1.53;0.77;;;;;;;;;;4967850;28;20634;-61
2023/12/05 15:42:50;;;;;;;1.50;0.53;;;;;;;;;;4979141;28;20233;-60
2023/12/05 15:45:18;;;;;;;1.17;0.80;;;;;;;;;;4979025;28;20205;-62
2023/12/05 15:47:46;;;;;;;2.47;1.00;;;;;;;;;;4979057;28;20217;-63
2023/12/05 15:50:16;;;;;;;0.90;0.80;;;;;;;;;;4972601;28;20614;-62
2023/12/05 15:52:47;;;;;;;1.07;0.80;;;;;;;;;;4976667;28;20257;-61
2023/12/05 15:55:16;;;;;;;1.63;0.77;;;;;;;;;;4977687;28;20604;-62
2023/12/05 15:57:51;;;;;;;2.23;1.07;;;;;;;;;;4978219;28;20260;-63
2023/12/05 16:00:20;;;;;;;3.90;0.90;;;;;;;;;;4978432;28;20201;-64
2023/12/05 16:02:48;;;;;;;0.80;0.80;;;;;;;;;;4975211;28;20233;-63
2023/12/05 16:05:16;;;;;;;3.63;1.00;;;;;;;;;;4977198;28;20318;-64
2023/12/05 16:07:44;;;;;;;4.07;0.93;;;;;;;;;;4977889;28;20208;-62
2023/12/05 16:10:15;;;;;;;1.23;0.70;;;;;;;;;;4976975;28;20206;-64
2023/12/05 16:12:51;;;;;;;2.00;0.87;;;;;;;;;;4968561;28;20240;-64
2023/12/05 16:15:19;;;;;;;3.23;1.00;;;;;;;;;;4972576;28;20231;-62
2023/12/05 16:17:48;;;;;;;4.03;1.33;;;;;;;;;;4974530;28;20216;-62
2023/12/05 16:20:16;;;;;;;0.77;0.77;;;;;;;;;;4976981;28;20206;-63
2023/12/05 16:22:45;;;;;;;2.00;0.80;;;;;;;;;;4977900;28;20224;-63
2023/12/05 16:25:15;;;;;;;3.03;1.20;;;;;;;;;;4957960;28;20673;-63
2023/12/05 16:27:43;;;;;;;1.70;1.03;;;;;;;;;;4978688;28;20206;-63
2023/12/05 16:33:18;;;;;;;1.10;0.70;;;;;;;;;;4972116;28;20210;-62
2023/12/05 16:36:25;;;;;;;3.00;1.07;;;;;;;;;;4976451;28;20308;-61
2023/12/05 16:38:53;;;;;;;2.20;1.10;;;;;;;;;;4977774;28;20230;-62
2023/12/05 16:41:23;;;;;;;2.37;1.10;;;;;;;;;;4971062;28;20221;-62
2023/12/05 16:47:20;;;;;;;2.67;1.00;;;;;;;;;;4974010;28;20201;-62
2023/12/05 16:49:57;;;;;;;0.90;0.60;;;;;;;;;;4977378;28;20197;-62
2023/12/05 16:56:16;;;;;;;0.87;0.87;;;;;;;;;;4973425;28;20232;-62
2023/12/05 17:05:47;;;;;;;2.73;1.17;;;;;;;;;;4974458;28;20196;-63
2023/12/05 17:08:16;;;;;;;4.53;1.03;;;;;;;;;;4977450;28;20205;-63
2023/12/05 17:14:13;;;;;;;2.30;1.10;;;;;;;;;;4973004;28;20340;-62